Terminal Aerodrome Forecast
Issued by NWS

Home | Current Version | Previous Version | Text Only | Print | Product List | Glossary On
Versions: 1 2 3 4 5 6 7 8 9 10 11 12 13 14 15
000
FTUS42 KMHX 260127 AAA
TAFPGV
TAF AMD
KPGV 260127Z 2601/2624 06007KT P6SM OVC004
     FM260900 03004KT 2SM BR OVC003
     FM261400 04007KT P6SM VCSH OVC007
     FM261900 02009KT P6SM OVC015
      AMD LTD TO CLD VIS AND WIND=

USA.gov is the U.S. government's official web portal to all federal, state and local government web resources and services.